createdAt,value
2023-11-15T00:04:55.914Z,8.82
2023-11-15T00:09:58.601Z,6.97
2023-11-15T00:15:01.355Z,10.00
2023-11-15T00:20:05.431Z,7.95
2023-11-15T00:25:08.913Z,11.13
2023-11-15T00:30:12.796Z,8.45
2023-11-15T00:35:15.642Z,10.75
2023-11-15T00:40:19.378Z,10.05
2023-11-15T00:45:25.410Z,10.68
2023-11-15T00:50:28.255Z,6.90
2023-11-15T00:55:30.848Z,8.25
2023-11-15T01:00:40.996Z,11.80
2023-11-15T01:05:43.728Z,12.15
2023-11-15T01:10:47.095Z,11.90
2023-11-15T01:15:50.022Z,13.30
2023-11-15T01:20:53.016Z,12.63
2023-11-15T01:25:56.905Z,8.07
2023-11-15T01:30:59.616Z,13.70
2023-11-15T01:36:02.241Z,13.57
2023-11-15T01:41:07.899Z,12.38
2023-11-15T01:46:10.839Z,11.85
2023-11-15T01:51:13.494Z,17.00
2023-11-15T01:56:16.154Z,13.70
2023-11-15T02:01:19.033Z,16.48
2023-11-15T02:06:22.579Z,23.08
2023-11-15T02:11:28.953Z,14.65
2023-11-15T02:16:31.815Z,23.02
2023-11-15T02:21:34.530Z,19.90
2023-11-15T02:26:37.126Z,20.27
2023-11-15T02:31:40.109Z,11.85
2023-11-15T02:36:43.481Z,16.92
2023-11-15T02:41:46.555Z,13.13
2023-11-15T02:46:49.179Z,20.77
2023-11-15T02:51:51.771Z,12.23
2023-11-15T02:56:54.411Z,9.93
2023-11-15T03:01:57.054Z,12.27
2023-11-15T03:06:59.668Z,11.32
2023-11-15T03:12:02.521Z,11.48
2023-11-15T03:17:14.468Z,11.15
2023-11-15T03:27:20.928Z,12.10
2023-11-15T03:32:24.449Z,11.27
2023-11-15T03:37:27.956Z,12.65
2023-11-15T03:42:30.648Z,12.30
2023-11-15T03:47:34.469Z,9.73
2023-11-15T03:52:37.343Z,7.53
2023-11-15T03:57:40.029Z,10.35
2023-11-15T04:02:42.864Z,10.32
2023-11-15T04:07:45.908Z,14.55
2023-11-15T04:12:48.488Z,7.97
2023-11-15T04:17:51.235Z,11.52
2023-11-15T04:22:53.939Z,9.10
2023-11-15T04:27:57.035Z,8.95
2023-11-15T04:33:00.774Z,8.60
2023-11-15T04:38:06.861Z,6.93
2023-11-15T04:43:10.139Z,7.40
2023-11-15T04:48:12.834Z,9.65
2023-11-15T04:53:15.375Z,7.85
2023-11-15T04:58:18.030Z,7.63
2023-11-15T05:03:21.672Z,8.05
2023-11-15T05:08:24.375Z,6.22
2023-11-15T05:13:27.115Z,5.22
2023-11-15T05:18:29.735Z,8.68
2023-11-15T05:23:32.462Z,6.47
2023-11-15T05:28:35.687Z,6.82
2023-11-15T05:33:38.410Z,10.75
2023-11-15T05:38:42.298Z,6.47
2023-11-15T05:43:44.922Z,8.50
2023-11-15T05:48:48.094Z,9.73
2023-11-15T05:53:50.733Z,8.38
2023-11-15T05:58:53.392Z,5.93
2023-11-15T06:03:56.064Z,7.57
2023-11-15T06:08:58.643Z,5.72
2023-11-15T06:14:01.226Z,5.63
2023-11-15T06:19:03.944Z,8.43
2023-11-15T06:24:06.885Z,12.02
2023-11-15T06:29:09.633Z,11.68
2023-11-15T06:34:12.827Z,6.07
2023-11-15T06:39:15.924Z,6.00
2023-11-15T06:44:18.561Z,3.72
2023-11-15T06:49:21.164Z,5.55
2023-11-15T06:54:23.899Z,10.10
2023-11-15T06:59:27.437Z,6.05
2023-11-15T07:04:31.227Z,9.18
2023-11-15T07:09:35.017Z,5.82
2023-11-15T07:14:37.848Z,7.13
2023-11-15T07:19:40.673Z,6.97
2023-11-15T07:24:44.405Z,4.07
2023-11-15T07:29:48.276Z,7.82
2023-11-15T07:34:50.887Z,4.60
2023-11-15T07:39:53.889Z,6.63
2023-11-15T07:44:56.537Z,6.07
2023-11-15T07:50:00.409Z,4.70
2023-11-15T07:55:03.509Z,9.65
2023-11-15T08:00:11.137Z,7.60
2023-11-15T08:05:17.487Z,7.35
2023-11-15T08:10:20.440Z,5.22
2023-11-15T08:15:23.171Z,8.35
2023-11-15T08:20:26.386Z,7.82
2023-11-15T08:25:29.343Z,5.63
2023-11-15T08:30:32.397Z,6.82
2023-11-15T08:35:35.051Z,7.47
2023-11-15T08:40:39.156Z,3.72
2023-11-15T08:45:42.971Z,7.95
2023-11-15T08:50:46.085Z,7.65
2023-11-15T08:55:50.450Z,5.25
2023-11-15T09:00:54.962Z,5.65
2023-11-15T09:05:57.736Z,6.53
2023-11-15T09:11:01.118Z,6.80
2023-11-15T09:16:04.296Z,8.43
2023-11-15T09:21:34.392Z,5.85
2023-11-15T09:26:39.358Z,6.13
2023-11-15T09:31:45.516Z,6.53
2023-11-15T09:36:51.534Z,5.57
2023-11-15T09:41:55.437Z,5.35
2023-11-15T09:46:59.879Z,5.07
2023-11-15T09:52:04.178Z,6.38
2023-11-15T09:57:07.877Z,8.15
2023-11-15T10:02:12.725Z,8.15
2023-11-15T10:07:27.341Z,8.00
2023-11-15T10:12:33.065Z,8.20
2023-11-15T10:17:44.518Z,7.18
2023-11-15T10:22:48.256Z,7.93
2023-11-15T10:27:52.770Z,6.97
2023-11-15T10:33:16.260Z,7.97
2023-11-15T10:38:24.070Z,6.53
2023-11-15T10:43:29.234Z,4.22
2023-11-15T10:48:35.406Z,4.80
2023-11-15T10:53:38.671Z,4.95
2023-11-15T10:58:43.201Z,6.65
2023-11-15T11:09:17.928Z,6.03
2023-11-15T11:14:29.574Z,5.53
2023-11-15T11:19:42.492Z,6.28
2023-11-15T11:24:57.477Z,5.43
2023-11-15T11:30:03.336Z,6.78
2023-11-15T11:35:15.149Z,6.60
2023-11-15T11:40:40.651Z,5.55
2023-11-15T11:45:58.029Z,6.25
2023-11-15T11:51:09.518Z,4.80
2023-11-15T11:56:15.307Z,5.90
2023-11-15T12:01:18.055Z,3.70
2023-11-15T12:06:21.073Z,7.70
2023-11-15T12:11:24.771Z,6.93
2023-11-15T12:16:28.998Z,6.05
2023-11-15T12:21:42.816Z,7.97
2023-11-15T12:26:49.394Z,9.98
2023-11-15T12:31:58.015Z,6.43
2023-11-15T12:37:01.472Z,7.53
2023-11-15T12:42:05.682Z,7.38
2023-11-15T12:47:09.081Z,10.73
2023-11-15T12:52:12.120Z,9.52
2023-11-15T12:57:15.756Z,8.30
2023-11-15T13:02:38.113Z,9.60
2023-11-15T13:07:47.178Z,9.05
2023-11-15T13:12:55.229Z,10.30
2023-11-15T13:18:01.094Z,12.05
2023-11-15T13:23:06.021Z,12.98
2023-11-15T13:28:12.821Z,12.15
2023-11-15T13:33:19.588Z,10.13
2023-11-15T13:38:27.747Z,9.70
2023-11-15T13:43:38.974Z,9.63
2023-11-15T13:48:42.025Z,8.23
2023-11-15T13:53:46.348Z,9.88
2023-11-15T13:58:51.813Z,8.70
2023-11-15T14:03:56.452Z,11.63
2023-11-15T14:09:00.791Z,8.95
2023-11-15T14:14:05.744Z,8.50
2023-11-15T14:19:11.375Z,10.57
2023-11-15T14:24:14.105Z,13.63
2023-11-15T14:29:17.341Z,8.25
2023-11-15T14:34:21.565Z,11.55
2023-11-15T14:39:27.098Z,11.25
2023-11-15T14:44:30.211Z,13.90
2023-11-15T14:49:32.937Z,6.32
2023-11-15T14:54:41.969Z,10.30
2023-11-15T14:59:45.726Z,6.00
2023-11-15T15:04:50.589Z,9.48
2023-11-15T15:09:54.703Z,7.45
2023-11-15T15:14:59.896Z,9.98
2023-11-15T15:20:04.158Z,6.40
2023-11-15T15:25:10.382Z,6.47
2023-11-15T15:30:18.108Z,10.30
2023-11-15T15:35:21.370Z,8.43
2023-11-15T15:40:28.164Z,7.15
2023-11-15T15:45:31.025Z,8.55
2023-11-15T15:50:34.458Z,12.20
2023-11-15T15:55:38.165Z,11.82
2023-11-15T16:00:42.120Z,16.15
2023-11-15T16:05:46.353Z,12.60
2023-11-15T16:10:51.514Z,14.75
2023-11-15T16:15:56.000Z,16.50
2023-11-15T16:21:02.238Z,15.95
2023-11-15T16:26:08.486Z,17.90
2023-11-15T16:31:12.339Z,14.63
2023-11-15T16:36:16.123Z,15.88
2023-11-15T16:41:19.591Z,17.33
2023-11-15T16:46:22.461Z,16.40
2023-11-15T16:51:25.386Z,19.52
2023-11-15T16:56:28.380Z,20.88
2023-11-15T17:01:33.536Z,17.77
2023-11-15T17:06:40.880Z,15.43
2023-11-15T17:11:43.626Z,12.82
2023-11-15T17:16:47.172Z,19.83
2023-11-15T17:21:52.828Z,14.75
2023-11-15T17:26:55.661Z,16.85
2023-11-15T17:32:03.716Z,13.40
2023-11-15T17:37:07.286Z,19.30
2023-11-15T17:42:11.541Z,15.32
2023-11-15T17:47:18.254Z,16.38
2023-11-15T17:52:21.289Z,18.05
2023-11-15T17:57:23.936Z,16.80
2023-11-15T18:02:26.919Z,17.75
2023-11-15T18:07:29.640Z,19.80
2023-11-15T18:12:36.528Z,17.70
2023-11-15T18:17:42.379Z,10.70
2023-11-15T18:22:48.634Z,10.77
2023-11-15T18:27:51.334Z,11.93
2023-11-15T18:32:56.444Z,8.20
2023-11-15T18:37:59.547Z,8.55
2023-11-15T18:43:02.449Z,6.75
2023-11-15T18:48:07.961Z,8.88
2023-11-15T18:53:10.866Z,9.82
2023-11-15T18:58:13.526Z,11.35
2023-11-15T19:03:16.553Z,5.57
2023-11-15T19:08:20.089Z,6.32
2023-11-15T19:13:29.305Z,5.53
2023-11-15T19:18:32.189Z,6.47
2023-11-15T19:23:36.143Z,5.75
2023-11-15T19:28:38.934Z,8.65
2023-11-15T19:33:42.719Z,5.28
2023-11-15T19:38:45.462Z,5.32
2023-11-15T19:43:50.721Z,7.28
2023-11-15T19:48:54.571Z,4.25
2023-11-15T19:53:57.559Z,5.53
2023-11-15T19:59:00.696Z,7.28
2023-11-15T20:04:05.416Z,4.70
2023-11-15T20:09:11.232Z,3.88
2023-11-15T20:14:13.855Z,5.35
2023-11-15T20:19:20.075Z,3.00
2023-11-15T20:24:22.863Z,2.85
2023-11-15T20:29:25.484Z,3.15
2023-11-15T20:34:28.073Z,1.67
2023-11-15T20:39:31.404Z,1.95
2023-11-15T20:44:34.064Z,3.60
2023-11-15T20:49:37.801Z,4.72
2023-11-15T20:54:41.107Z,3.08
2023-11-15T20:59:44.880Z,9.52
2023-11-15T21:04:48.064Z,7.28
2023-11-15T21:09:53.917Z,11.18
2023-11-15T21:14:56.663Z,13.30
2023-11-15T21:19:59.307Z,6.15
2023-11-15T21:25:01.862Z,3.22
2023-11-15T21:30:06.260Z,2.47
2023-11-15T21:35:10.912Z,6.47
2023-11-15T21:45:21.526Z,4.13
2023-11-15T21:50:24.400Z,3.20
2023-11-15T21:55:27.065Z,7.20
2023-11-15T22:00:30.457Z,2.10
2023-11-15T22:05:36.538Z,5.55
2023-11-15T22:10:39.235Z,3.10
2023-11-15T22:15:41.831Z,2.25
2023-11-15T22:20:44.751Z,4.70
2023-11-15T22:25:47.973Z,1.58
2023-11-15T22:30:50.924Z,2.85
2023-11-15T22:35:53.597Z,1.20
2023-11-15T22:40:56.255Z,2.47
2023-11-15T22:45:59.360Z,0.98
2023-11-15T22:51:02.058Z,5.00
2023-11-15T22:56:04.936Z,2.63
2023-11-15T23:01:07.534Z,2.55
2023-11-15T23:06:13.158Z,2.70
2023-11-15T23:11:16.577Z,2.60
2023-11-15T23:16:21.226Z,2.28
2023-11-15T23:21:24.037Z,2.10
2023-11-15T23:26:29.122Z,2.15
2023-11-15T23:31:35.815Z,3.72
2023-11-15T23:36:38.517Z,3.05
2023-11-15T23:41:41.180Z,2.42
2023-11-15T23:46:44.446Z,2.38
2023-11-15T23:51:47.078Z,3.38
2023-11-15T23:56:49.670Z,2.00
